Time;durP1;ratioP1;P1;durP2;ratioP2;P2;SDS_P1;SDS_P2;PMS_P1;PMS_P2;Temp;Humidity;BMP_temperature;BMP_pressure;BME280_temperature;BME280_humidity;BME280_pressure;Samples;Min_cycle;Max_cycle;Signal;HPM_P1;HPM_P2
2023/06/12 00:00:47;;;;;;;8.75;6.95;;;;;;;20.14;43.67;98194.00;4999547;28;20113;-74
2023/06/12 00:03:13;;;;;;;9.52;6.90;;;;;;;20.12;44.21;98196.22;5015271;28;20032;-74
2023/06/12 00:05:43;;;;;;;7.88;6.43;;;;;;;20.20;43.65;98195.47;4980405;28;20434;-74
2023/06/12 00:08:09;;;;;;;9.32;6.93;;;;;;;19.96;44.28;98192.97;5015859;28;20033;-75
2023/06/12 00:10:35;;;;;;;8.02;6.82;;;;;;;19.90;44.84;98194.22;4999626;28;20475;-74
2023/06/12 00:13:00;;;;;;;8.00;7.00;;;;;;;19.94;44.47;98192.47;4985632;28;20038;-74
2023/06/12 00:15:25;;;;;;;8.77;6.57;;;;;;;19.95;44.51;98196.84;4992912;28;20029;-75
2023/06/12 00:17:51;;;;;;;7.47;6.68;;;;;;;20.01;44.22;98195.59;4976942;28;20055;-74
2023/06/12 00:20:16;;;;;;;7.47;6.68;;;;;;;19.87;44.83;98189.34;5014841;28;20043;-74
2023/06/12 00:22:43;;;;;;;9.50;6.53;;;;;;;19.87;44.33;98195.63;5015627;28;20099;-74
2023/06/12 00:25:08;;;;;;;7.13;6.20;;;;;;;19.77;44.93;98186.81;5014400;28;20498;-74
2023/06/12 00:27:34;;;;;;;9.90;7.35;;;;;;;19.76;44.92;98182.47;5002910;28;20033;-74
2023/06/12 00:29:59;;;;;;;7.68;6.75;;;;;;;19.80;44.76;98191.66;5026729;28;20026;-74
2023/06/12 00:32:24;;;;;;;8.05;7.05;;;;;;;19.85;44.80;98181.47;5008035;28;20033;-74
2023/06/12 00:34:50;;;;;;;8.52;7.03;;;;;;;19.65;44.93;98197.44;4995941;28;20028;-74
2023/06/12 00:37:17;;;;;;;7.47;6.63;;;;;;;19.64;45.23;98180.25;4991267;28;20501;-75
2023/06/12 00:39:43;;;;;;;8.45;6.80;;;;;;;19.63;45.38;98194.19;4998961;28;20017;-73
2023/06/12 00:42:09;;;;;;;10.15;7.25;;;;;;;19.48;45.75;98187.13;5032743;28;20071;-74
2023/06/12 00:44:34;;;;;;;7.35;6.65;;;;;;;19.55;45.57;98192.16;5014345;28;20017;-74
2023/06/12 00:47:00;;;;;;;10.10;6.50;;;;;;;19.61;45.12;98191.75;5014772;28;20199;-73
2023/06/12 00:49:25;;;;;;;7.82;7.03;;;;;;;19.69;45.22;98198.47;5015051;28;20025;-74
2023/06/12 00:51:52;;;;;;;7.63;6.70;;;;;;;19.60;45.61;98194.81;5026228;28;20076;-73
2023/06/12 00:54:17;;;;;;;8.02;7.22;;;;;;;19.51;45.93;98185.69;4998421;28;20036;-73
2023/06/12 00:57:22;;;;;;;8.20;7.30;;;;;;;19.35;45.94;98162.50;5189332;22;20106;-74
2023/06/12 00:59:48;;;;;;;7.68;6.85;;;;;;;19.68;45.53;98189.44;4978574;28;20064;-75
2023/06/12 01:02:14;;;;;;;8.15;7.10;;;;;;;19.54;45.96;98190.53;5011354;28;20025;-76
2023/06/12 01:04:42;;;;;;;7.65;6.53;;;;;;;19.55;45.98;98186.72;5008111;28;20110;-76
2023/06/12 01:07:21;;;;;;;7.72;6.90;;;;;;;19.25;46.46;98177.91;5004899;28;20030;-76
2023/06/12 01:09:56;;;;;;;9.48;7.93;;;;;;;19.44;46.19;98186.06;4989341;28;20121;-76
2023/06/12 01:12:22;;;;;;;9.32;7.30;;;;;;;18.10;50.41;98188.72;5005843;28;20026;-76
2023/06/12 01:14:47;;;;;;;8.82;7.50;;;;;;;17.09;54.33;98205.34;4999650;28;20543;-76
2023/06/12 01:17:13;;;;;;;8.18;7.38;;;;;;;16.67;56.06;98213.31;5005866;28;20038;-76
2023/06/12 01:19:41;;;;;;;7.80;7.10;;;;;;;17.10;54.02;98207.00;5008409;28;20033;-76
2023/06/12 01:22:10;;;;;;;8.13;7.32;;;;;;;17.23;54.33;98206.31;5005806;28;20037;-76
2023/06/12 01:24:42;;;;;;;9.25;7.80;;;;;;;16.67;55.60;98207.88;5006713;28;20021;-75
2023/06/12 01:27:25;;;;;;;9.10;7.40;;;;;;;16.85;55.08;98204.50;4999802;28;20116;-76
2023/06/12 01:30:20;;;;;;;9.55;7.47;;;;;;;16.55;55.50;98206.31;4996028;28;20033;-77
2023/06/12 01:32:50;;;;;;;8.32;7.43;;;;;;;16.48;56.26;98204.97;4994685;28;20036;-77
2023/06/12 01:35:23;;;;;;;8.65;7.32;;;;;;;16.41;56.64;98210.72;5003577;28;20422;-77
2023/06/12 01:37:56;;;;;;;8.45;7.53;;;;;;;16.21;57.11;98202.72;5011073;28;20033;-77
2023/06/12 01:40:26;;;;;;;11.02;7.90;;;;;;;16.40;56.83;98205.59;4997210;28;20034;-77
2023/06/12 01:42:53;;;;;;;8.98;6.80;;;;;;;16.27;56.67;98201.56;4991458;28;20106;-78
2023/06/12 01:45:19;;;;;;;9.13;7.53;;;;;;;16.35;56.75;98205.63;4991687;28;20049;-77
2023/06/12 01:47:45;;;;;;;8.52;7.72;;;;;;;16.41;56.94;98194.44;5002090;28;20096;-77
2023/06/12 01:50:12;;;;;;;9.30;8.10;;;;;;;16.03;57.68;98191.66;5020733;28;20095;-76
2023/06/12 01:52:40;;;;;;;8.63;7.68;;;;;;;15.99;58.26;98199.56;4999397;28;20468;-76
2023/06/12 01:55:05;;;;;;;8.95;7.70;;;;;;;16.04;57.61;98196.81;5014255;28;20032;-76
2023/06/12 01:57:32;;;;;;;8.68;7.70;;;;;;;15.72;58.96;98196.41;4946988;28;1306117;-76
2023/06/12 02:00:04;;;;;;;8.23;7.38;;;;;;;15.88;58.22;98196.09;4996002;28;20034;-75
2023/06/12 02:02:33;;;;;;;9.20;7.80;;;;;;;16.03;57.95;98187.06;4978583;28;20045;-76
2023/06/12 02:04:58;;;;;;;10.50;8.27;;;;;;;15.85;58.41;98198.53;5006186;28;20025;-74
2023/06/12 02:07:25;;;;;;;8.35;7.53;;;;;;;15.95;57.97;98197.66;4962068;28;20032;-75
2023/06/12 02:09:52;;;;;;;8.23;7.47;;;;;;;15.82;58.27;98196.38;5006349;28;20026;-75
2023/06/12 02:12:18;;;;;;;9.57;8.57;;;;;;;15.46;60.39;98200.28;5001141;28;20025;-75
2023/06/12 02:14:44;;;;;;;8.95;8.05;;;;;;;15.69;59.42;98200.50;5013364;28;20028;-75
2023/06/12 02:17:13;;;;;;;11.13;8.43;;;;;;;15.51;60.13;98184.00;4998387;28;20491;-75
2023/06/12 02:19:39;;;;;;;9.18;8.20;;;;;;;15.92;58.79;98203.69;5013756;28;20030;-75
2023/06/12 02:22:04;;;;;;;9.25;8.00;;;;;;;15.38;60.76;98195.41;5006886;28;20411;-76
2023/06/12 02:24:31;;;;;;;9.80;8.20;;;;;;;15.56;59.94;98203.00;5007065;28;20036;-75
2023/06/12 02:26:59;;;;;;;10.48;7.97;;;;;;;15.68;59.18;98203.50;5006399;28;20132;-75
2023/06/12 02:29:25;;;;;;;8.80;7.90;;;;;;;15.89;59.13;98203.13;4992321;28;20175;-76
2023/06/12 02:31:58;;;;;;;10.63;8.25;;;;;;;15.82;59.12;98208.03;5030526;28;20025;-77
2023/06/12 02:34:23;;;;;;;10.20;8.32;;;;;;;15.79;59.61;98207.78;5013244;28;20044;-76
2023/06/12 02:36:50;;;;;;;8.38;7.40;;;;;;;15.76;59.59;98203.72;4986098;28;20033;-77
2023/06/12 02:39:21;;;;;;;10.27;8.13;;;;;;;15.84;59.45;98207.78;5007537;28;20717;-77
2023/06/12 02:41:48;;;;;;;13.95;8.73;;;;;;;15.91;58.87;98216.44;4987192;28;20079;-76
2023/06/12 02:44:14;;;;;;;9.90;8.27;;;;;;;16.03;58.50;98203.34;4999854;28;20494;-76
2023/06/12 02:46:53;;;;;;;9.18;8.15;;;;;;;15.63;59.71;98203.50;4984476;28;20062;-75
2023/06/12 02:49:19;;;;;;;9.15;8.15;;;;;;;15.33;60.96;98192.72;5026422;28;20034;-75
2023/06/12 02:51:45;;;;;;;8.75;7.85;;;;;;;15.64;60.03;98210.56;5009574;28;20017;-75
2023/06/12 02:54:12;;;;;;;10.60;7.90;;;;;;;16.28;57.02;98205.94;4981739;28;20634;-75
2023/06/12 02:56:37;;;;;;;11.77;8.60;;;;;;;16.44;57.34;98221.06;5006991;28;20021;-77
2023/06/12 02:59:03;;;;;;;10.73;8.55;;;;;;;15.38;60.78;98211.69;5004221;28;20048;-76
2023/06/12 03:01:29;;;;;;;9.07;8.15;;;;;;;15.84;58.97;98211.31;4985811;28;20069;-77
2023/06/12 03:03:56;;;;;;;9.25;8.30;;;;;;;15.89;59.89;98208.56;5010243;28;20120;-76
2023/06/12 03:06:26;;;;;;;9.57;7.88;;;;;;;15.34;61.05;98199.75;4997566;28;20051;-76
2023/06/12 03:08:52;;;;;;;11.02;8.27;;;;;;;15.84;59.39;98200.44;4978553;28;20117;-74
2023/06/12 03:11:17;;;;;;;11.02;8.50;;;;;;;15.51;60.36;98200.28;4998668;28;20025;-75
2023/06/12 03:13:43;;;;;;;9.13;8.23;;;;;;;15.69;60.14;98224.13;4999642;28;20035;-75
2023/06/12 03:16:09;;;;;;;9.63;8.63;;;;;;;15.30;61.64;98218.50;4984477;28;20101;-76
2023/06/12 03:18:35;;;;;;;11.63;8.38;;;;;;;15.35;61.07;98212.25;5010725;28;20034;-77
2023/06/12 03:21:01;;;;;;;9.25;8.30;;;;;;;15.41;61.69;98221.97;4978042;28;20080;-77
2023/06/12 03:23:27;;;;;;;12.35;8.25;;;;;;;15.23;61.94;98221.50;5009304;28;20046;-77
2023/06/12 03:25:52;;;;;;;10.88;8.32;;;;;;;15.39;61.49;98218.72;4993013;28;20039;-76
2023/06/12 03:28:17;;;;;;;9.02;8.13;;;;;;;15.21;62.29;98215.53;5019467;28;20038;-75
2023/06/12 03:30:44;;;;;;;10.73;8.60;;;;;;;15.47;61.79;98219.03;5007187;28;20582;-76
2023/06/12 03:33:11;;;;;;;10.13;8.45;;;;;;;14.97;63.36;98222.59;4977096;28;20043;-77
2023/06/12 03:35:38;;;;;;;9.85;8.35;;;;;;;15.03;63.08;98209.81;4987391;28;20032;-74
2023/06/12 03:38:04;;;;;;;10.30;8.60;;;;;;;15.23;62.19;98210.63;5002799;28;20037;-74
2023/06/12 03:40:29;;;;;;;11.20;8.50;;;;;;;15.35;62.09;98209.53;5016433;28;20017;-73
2023/06/12 03:42:54;;;;;;;10.68;8.77;;;;;;;15.45;62.02;98201.41;4997576;28;20053;-73
2023/06/12 03:45:21;;;;;;;10.60;8.70;;;;;;;15.27;62.62;98210.06;5008277;28;20376;-73
2023/06/12 03:47:46;;;;;;;11.65;9.05;;;;;;;15.42;62.40;98210.88;4997684;28;20041;-73
2023/06/12 03:50:14;;;;;;;10.32;8.13;;;;;;;15.41;62.70;98208.41;4989959;28;20021;-74
2023/06/12 03:52:39;;;;;;;11.43;8.90;;;;;;;15.59;61.83;98213.31;4999495;28;20032;-76
2023/06/12 03:55:05;;;;;;;9.40;8.35;;;;;;;15.56;62.21;98203.81;4997207;28;20029;-77
2023/06/12 03:57:30;;;;;;;10.00;8.90;;;;;;;15.59;62.04;98208.66;4987938;28;20104;-76
2023/06/12 03:59:56;;;;;;;10.15;8.32;;;;;;;15.38;63.05;98207.06;5003858;28;20069;-76
2023/06/12 04:02:22;;;;;;;9.57;8.57;;;;;;;15.27;63.54;98210.06;5000076;28;20088;-76
2023/06/12 04:04:51;;;;;;;10.38;8.88;;;;;;;15.12;63.95;98209.00;5003830;28;20029;-77
2023/06/12 04:07:18;;;;;;;10.10;9.10;;;;;;;15.41;63.13;98221.97;5012371;28;20101;-76
2023/06/12 04:09:44;;;;;;;9.82;8.82;;;;;;;15.56;62.90;98213.84;5009862;28;20025;-74
2023/06/12 04:12:10;;;;;;;11.32;8.77;;;;;;;15.66;62.55;98219.25;5019166;28;20036;-76
2023/06/12 04:14:35;;;;;;;11.43;8.95;;;;;;;15.57;63.55;98221.72;5002670;28;20021;-75
2023/06/12 04:17:00;;;;;;;10.23;8.90;;;;;;;15.74;62.97;98224.09;4985408;28;20043;-76
2023/06/12 04:19:26;;;;;;;12.85;8.18;;;;;;;15.84;62.52;98232.22;5035532;28;20034;-78
2023/06/12 04:21:52;;;;;;;13.35;8.75;;;;;;;15.92;62.30;98223.50;4980164;28;20412;-77
2023/06/12 04:24:19;;;;;;;10.18;8.25;;;;;;;16.19;61.40;98233.97;5010573;28;20122;-76
2023/06/12 04:26:46;;;;;;;9.05;8.05;;;;;;;16.21;61.84;98229.88;5012615;28;20038;-77
2023/06/12 04:29:13;;;;;;;10.32;8.05;;;;;;;16.20;62.61;98236.41;4997148;28;20049;-78
2023/06/12 04:31:39;;;;;;;11.35;8.77;;;;;;;16.14;62.66;98237.53;5006148;28;20030;-77
2023/06/12 04:34:06;;;;;;;12.15;8.10;;;;;;;16.28;62.38;98233.13;4990557;28;20030;-77
2023/06/12 04:36:37;;;;;;;12.32;8.68;;;;;;;16.45;62.71;98232.75;4996571;28;20074;-77
2023/06/12 04:39:04;;;;;;;9.30;7.72;;;;;;;16.55;61.46;98240.84;5013070;28;20087;-78
2023/06/12 04:41:33;;;;;;;10.68;7.75;;;;;;;16.51;60.40;98240.63;5016838;28;20130;-76
2023/06/12 04:44:00;;;;;;;10.32;8.25;;;;;;;16.86;60.59;98238.75;5019709;28;20192;-78
2023/06/12 04:46:30;;;;;;;8.88;7.68;;;;;;;16.78;61.15;98236.63;5001445;28;20022;-77
2023/06/12 04:48:55;;;;;;;8.75;7.35;;;;;;;16.86;60.90;98233.31;5000882;28;20041;-75
2023/06/12 04:51:23;;;;;;;9.38;7.03;;;;;;;16.74;61.12;98230.13;4995177;28;20097;-76
2023/06/12 04:53:49;;;;;;;9.00;7.35;;;;;;;17.06;60.42;98233.94;4979062;28;20026;-75
2023/06/12 04:56:20;;;;;;;10.50;7.25;;;;;;;17.09;59.62;98232.56;4995181;28;20105;-75
2023/06/12 04:58:46;;;;;;;7.85;6.78;;;;;;;16.99;59.84;98241.63;4990072;28;20038;-75
2023/06/12 05:01:11;;;;;;;8.15;7.03;;;;;;;17.42;59.56;98242.59;4959411;28;20026;-75
2023/06/12 05:03:38;;;;;;;9.85;7.32;;;;;;;17.68;58.87;98244.00;4974979;28;20125;-75
2023/06/12 05:06:04;;;;;;;8.13;6.90;;;;;;;17.48;59.61;98238.72;4975409;28;20030;-75
2023/06/12 05:08:30;;;;;;;8.55;7.47;;;;;;;17.04;59.93;98238.03;4978287;28;20510;-74
2023/06/12 05:10:55;;;;;;;8.20;6.80;;;;;;;17.40;57.75;98238.56;4997079;28;20022;-75
2023/06/12 05:13:21;;;;;;;9.20;6.90;;;;;;;17.49;57.74;98226.75;5013638;28;20087;-75
2023/06/12 05:15:47;;;;;;;11.13;7.07;;;;;;;18.07;55.72;98226.66;4997929;28;20029;-75
2023/06/12 05:18:13;;;;;;;8.38;7.07;;;;;;;18.12;57.04;98240.22;5014393;28;20040;-75
2023/06/12 05:20:40;;;;;;;10.93;7.32;;;;;;;18.02;55.13;98234.91;5005427;28;20104;-75
2023/06/12 05:23:06;;;;;;;8.00;7.20;;;;;;;18.53;54.83;98241.31;4993962;28;20465;-75
2023/06/12 05:25:31;;;;;;;10.13;7.53;;;;;;;18.69;53.40;98240.03;4983901;28;20118;-74
2023/06/12 05:27:57;;;;;;;9.48;7.03;;;;;;;18.62;53.88;98242.31;4975868;28;20035;-76
2023/06/12 05:30:24;;;;;;;9.00;6.97;;;;;;;18.50;54.05;98241.94;5003512;28;20025;-75
2023/06/12 05:32:49;;;;;;;10.23;7.32;;;;;;;18.78;53.29;98243.72;5016165;28;20036;-75
2023/06/12 05:35:15;;;;;;;8.02;7.22;;;;;;;18.79;53.21;98245.31;4994120;28;20021;-75
2023/06/12 05:37:40;;;;;;;11.30;7.53;;;;;;;19.19;52.46;98241.94;4994373;28;20087;-74
2023/06/12 05:40:09;;;;;;;7.93;7.13;;;;;;;18.73;54.84;98253.88;4975040;28;20030;-75
2023/06/12 05:42:35;;;;;;;10.32;7.10;;;;;;;19.30;52.91;98251.56;4974317;28;20045;-74
2023/06/12 05:45:01;;;;;;;10.55;6.75;;;;;;;19.63;52.61;98243.38;4977746;28;20431;-75
2023/06/12 05:47:27;;;;;;;9.35;6.07;;;;;;;19.78;49.25;98240.38;5012051;28;20041;-75
2023/06/12 05:49:52;;;;;;;9.38;6.20;;;;;;;20.02;47.18;98235.53;4985745;28;20024;-75
2023/06/12 05:52:18;;;;;;;7.15;6.20;;;;;;;20.27;46.49;98243.22;4994551;28;20035;-75
2023/06/12 05:54:43;;;;;;;10.02;5.78;;;;;;;20.19;46.24;98243.91;4983705;28;20163;-73
2023/06/12 05:57:09;;;;;;;7.78;5.88;;;;;;;20.26;46.99;98241.59;5011042;28;20088;-73
2023/06/12 05:59:34;;;;;;;7.20;5.63;;;;;;;20.49;46.61;98239.75;5004322;28;20111;-76
2023/06/12 06:02:00;;;;;;;8.35;6.20;;;;;;;20.74;45.86;98243.84;5007646;28;20030;-75
2023/06/12 06:04:27;;;;;;;7.57;6.13;;;;;;;20.70;46.08;98245.56;4978065;28;20034;-75
2023/06/12 06:06:53;;;;;;;7.95;6.32;;;;;;;20.49;46.99;98237.81;5007898;28;20108;-75
2023/06/12 06:09:19;;;;;;;7.45;5.78;;;;;;;20.21;46.88;98244.41;5000643;28;20369;-75
2023/06/12 06:11:45;;;;;;;7.85;6.32;;;;;;;20.93;46.54;98239.00;4981889;28;20112;-75
2023/06/12 06:14:11;;;;;;;9.60;6.32;;;;;;;20.91;45.46;98246.72;4996960;28;20026;-76
2023/06/12 06:16:37;;;;;;;11.02;6.55;;;;;;;21.00;45.48;98239.38;5003753;28;20151;-76
2023/06/12 06:19:03;;;;;;;7.50;6.05;;;;;;;20.82;46.06;98243.09;4993989;28;20480;-76
2023/06/12 06:21:30;;;;;;;8.95;6.32;;;;;;;21.10;45.36;98244.63;4994204;28;20121;-76
2023/06/12 06:23:56;;;;;;;10.20;7.00;;;;;;;20.79;45.36;98249.19;4988527;28;20454;-76
2023/06/12 06:26:21;;;;;;;9.60;6.40;;;;;;;21.02;45.13;98254.38;5000667;28;20129;-76
2023/06/12 06:28:47;;;;;;;9.88;6.72;;;;;;;21.10;45.12;98261.06;4988558;28;20026;-76
2023/06/12 06:31:12;;;;;;;7.47;6.50;;;;;;;20.95;45.43;98264.16;5026834;28;20038;-76
2023/06/12 06:33:38;;;;;;;8.85;6.40;;;;;;;21.08;45.19;98266.84;5007313;28;20026;-76
2023/06/12 06:36:05;;;;;;;11.68;6.70;;;;;;;21.34;45.53;98267.84;5014130;28;20037;-76
2023/06/12 06:38:31;;;;;;;11.95;6.55;;;;;;;21.51;45.97;98267.16;5007798;28;20040;-76
2023/06/12 06:40:56;;;;;;;6.85;6.00;;;;;;;21.43;45.87;98265.16;5028370;28;20026;-76
2023/06/12 06:43:22;;;;;;;11.13;7.18;;;;;;;21.60;44.86;98264.47;4990489;28;20087;-76
2023/06/12 06:45:54;;;;;;;8.02;6.43;;;;;;;21.49;45.22;98274.91;5014129;28;20038;-76
2023/06/12 06:48:20;;;;;;;10.10;6.70;;;;;;;21.82;44.85;98267.97;4992000;28;20044;-76
2023/06/12 06:50:46;;;;;;;9.15;6.15;;;;;;;21.66;43.75;98255.78;5000337;28;20018;-77
2023/06/12 06:53:13;;;;;;;8.75;6.72;;;;;;;21.70;44.08;98270.50;5008063;28;20032;-76
2023/06/12 06:55:42;;;;;;;7.10;6.40;;;;;;;21.82;44.24;98265.22;5020346;28;20029;-75
2023/06/12 06:58:08;;;;;;;7.45;6.03;;;;;;;21.84;44.04;98260.25;5017847;28;20490;-76
2023/06/12 07:00:33;;;;;;;13.65;6.57;;;;;;;21.76;44.46;98261.00;5020237;28;20031;-76
2023/06/12 07:02:59;;;;;;;8.25;6.20;;;;;;;22.02;44.43;98264.72;5021560;28;20113;-76
2023/06/12 07:05:27;;;;;;;11.15;6.50;;;;;;;22.19;44.04;98268.63;4994725;28;20047;-76
2023/06/12 07:07:53;;;;;;;9.27;6.80;;;;;;;22.11;43.95;98263.91;5008617;28;20112;-75
2023/06/12 07:10:19;;;;;;;6.90;6.20;;;;;;;22.06;43.58;98264.06;5003811;28;20402;-76
2023/06/12 07:12:48;;;;;;;7.22;6.35;;;;;;;22.24;43.13;98269.28;5001910;28;20030;-76
2023/06/12 07:15:13;;;;;;;7.82;6.40;;;;;;;22.32;42.74;98264.97;5027210;28;20021;-75
2023/06/12 07:17:43;;;;;;;7.22;5.85;;;;;;;22.23;42.76;98266.88;5009499;28;20034;-75
2023/06/12 07:20:09;;;;;;;8.40;6.15;;;;;;;22.32;42.41;98273.19;5010093;28;20496;-75
2023/06/12 07:22:34;;;;;;;10.55;6.72;;;;;;;22.59;42.52;98264.72;5005629;28;20050;-75
2023/06/12 07:25:00;;;;;;;8.18;6.25;;;;;;;22.75;42.41;98274.13;5002542;28;20072;-75
2023/06/12 07:27:26;;;;;;;7.47;5.88;;;;;;;22.40;43.57;98269.66;5008858;28;20021;-73
2023/06/12 07:29:55;;;;;;;9.48;6.50;;;;;;;22.37;43.66;98270.31;5010867;28;20061;-75
2023/06/12 07:32:20;;;;;;;8.90;6.60;;;;;;;22.78;43.31;98273.47;4993395;28;20029;-76
2023/06/12 07:34:46;;;;;;;8.57;6.20;;;;;;;22.81;42.24;98278.31;5001459;28;20087;-75
2023/06/12 07:37:12;;;;;;;7.32;6.32;;;;;;;22.32;42.00;98275.94;5019905;28;20021;-75
2023/06/12 07:39:38;;;;;;;8.30;6.30;;;;;;;22.84;41.97;98272.19;4990181;28;20554;-75
2023/06/12 07:42:06;;;;;;;8.50;6.30;;;;;;;23.21;41.88;98274.31;5002786;28;20029;-75
2023/06/12 07:44:32;;;;;;;7.57;6.30;;;;;;;23.15;42.22;98278.31;5002288;28;20029;-75
2023/06/12 07:46:57;;;;;;;8.80;6.20;;;;;;;23.14;41.47;98282.22;4983697;28;20026;-76
2023/06/12 07:49:23;;;;;;;10.10;7.10;;;;;;;22.97;42.18;98281.41;5012504;28;20045;-76
2023/06/12 07:51:48;;;;;;;10.10;6.78;;;;;;;23.23;41.59;98277.53;4996281;28;20021;-75
2023/06/12 07:54:14;;;;;;;10.98;6.03;;;;;;;23.21;41.38;98273.50;4989239;28;20839;-76
2023/06/12 07:56:40;;;;;;;10.35;6.03;;;;;;;23.16;41.60;98279.97;5005703;28;20064;-76
2023/06/12 07:59:10;;;;;;;10.07;6.30;;;;;;;23.44;41.22;98268.63;4999389;28;20496;-76
2023/06/12 08:01:39;;;;;;;7.43;6.25;;;;;;;23.59;40.45;98282.69;5002657;28;20123;-77
2023/06/12 08:04:09;;;;;;;9.35;6.05;;;;;;;23.57;40.43;98281.41;5008091;28;20476;-76
2023/06/12 08:06:35;;;;;;;8.75;6.85;;;;;;;23.58;40.37;98274.75;5009274;28;20052;-76
2023/06/12 08:09:01;;;;;;;7.10;6.40;;;;;;;23.78;40.09;98282.31;5003749;28;20021;-76
2023/06/12 08:11:26;;;;;;;7.35;6.28;;;;;;;24.07;39.96;98267.81;5001429;28;20558;-76
2023/06/12 08:13:52;;;;;;;7.82;5.95;;;;;;;23.23;40.77;98263.78;5007419;28;20026;-76
2023/06/12 08:16:20;;;;;;;9.38;6.05;;;;;;;23.51;39.34;98274.44;4993007;28;20029;-76
2023/06/12 08:18:47;;;;;;;8.32;6.05;;;;;;;23.76;38.51;98282.63;4987804;28;20028;-76
2023/06/12 08:21:15;;;;;;;10.48;6.35;;;;;;;23.60;38.38;98273.28;5017363;28;20496;-76
2023/06/12 08:23:40;;;;;;;8.80;5.97;;;;;;;23.52;38.76;98276.06;5007202;28;20038;-76
2023/06/12 08:26:08;;;;;;;6.85;5.85;;;;;;;23.55;37.84;98262.47;5009056;28;20029;-76
2023/06/12 08:28:38;;;;;;;11.15;5.60;;;;;;;24.06;37.56;98264.28;5003550;28;20025;-76
2023/06/12 08:31:08;;;;;;;6.72;5.72;;;;;;;23.54;37.02;98257.31;5003031;28;20026;-76
2023/06/12 08:33:33;;;;;;;8.02;5.63;;;;;;;23.69;36.43;98259.50;5014818;28;20029;-76
2023/06/12 08:35:59;;;;;;;8.63;5.65;;;;;;;23.92;36.54;98258.16;4984835;28;20037;-77
2023/06/12 08:38:25;;;;;;;6.88;6.00;;;;;;;24.12;35.81;98257.44;5006622;28;20029;-76
2023/06/12 08:40:54;;;;;;;6.70;5.78;;;;;;;24.46;35.43;98251.75;4992113;28;20095;-76
2023/06/12 08:43:19;;;;;;;8.48;5.75;;;;;;;24.50;35.47;98258.22;5003921;28;20495;-76
2023/06/12 08:45:47;;;;;;;6.53;5.60;;;;;;;24.21;35.01;98249.16;5012414;28;20096;-77
2023/06/12 08:48:16;;;;;;;8.75;6.05;;;;;;;23.86;36.61;98262.22;5004595;28;20044;-76
2023/06/12 08:50:42;;;;;;;9.05;5.85;;;;;;;24.27;36.54;98262.38;5002231;28;20483;-76
2023/06/12 08:53:08;;;;;;;9.13;6.00;;;;;;;24.31;35.42;98249.59;4998103;28;20076;-76
2023/06/12 08:55:39;;;;;;;7.57;6.10;;;;;;;24.56;36.53;98245.88;5001887;28;20116;-76
2023/06/12 08:58:05;;;;;;;8.75;6.22;;;;;;;24.28;36.36;98250.25;5001373;28;20038;-76
2023/06/12 09:00:31;;;;;;;5.85;5.20;;;;;;;24.33;35.63;98252.00;5008471;28;20091;-76
2023/06/12 09:02:57;;;;;;;8.70;5.60;;;;;;;24.11;36.21;98244.81;4989331;28;20041;-76
2023/06/12 09:05:38;;;;;;;6.45;5.80;;;;;;;24.66;35.05;98242.72;5001431;28;20021;-76
2023/06/12 09:08:05;;;;;;;6.85;5.40;;;;;;;24.65;36.69;98238.34;5002518;28;20081;-76
2023/06/12 09:10:33;;;;;;;10.00;6.03;;;;;;;24.19;34.97;98243.97;4988633;28;20025;-76
2023/06/12 09:13:01;;;;;;;6.93;6.10;;;;;;;24.31;35.04;98252.34;5000836;28;20048;-76
2023/06/12 09:15:27;;;;;;;6.45;5.53;;;;;;;24.87;34.22;98234.50;5004695;28;20037;-76
2023/06/12 09:17:54;;;;;;;6.93;5.20;;;;;;;25.06;34.07;98237.59;5005624;28;20038;-76
2023/06/12 09:20:27;;;;;;;7.65;6.07;;;;;;;25.19;34.45;98241.19;5007372;28;20024;-76
2023/06/12 09:23:03;;;;;;;7.07;6.00;;;;;;;24.98;34.55;98257.75;5025328;28;20479;-76
2023/06/12 09:25:40;;;;;;;8.05;5.28;;;;;;;24.97;33.20;98238.81;5020873;28;20080;-76
2023/06/12 09:28:07;;;;;;;6.07;5.32;;;;;;;25.17;34.47;98254.50;5001341;28;20550;-76
2023/06/12 09:30:33;;;;;;;8.23;5.63;;;;;;;25.03;34.57;98253.97;5003113;28;20037;-77
2023/06/12 09:33:02;;;;;;;8.82;6.18;;;;;;;25.18;34.04;98239.59;5007345;28;20566;-76
2023/06/12 09:35:28;;;;;;;7.05;5.57;;;;;;;24.67;34.93;98244.31;5006408;28;20132;-76
2023/06/12 09:37:54;;;;;;;6.45;5.38;;;;;;;24.28;34.86;98252.19;5009385;28;20105;-76
2023/06/12 09:40:19;;;;;;;7.38;5.60;;;;;;;24.82;33.96;98244.91;5002594;28;20088;-76
2023/06/12 09:42:45;;;;;;;7.38;5.70;;;;;;;25.39;33.41;98234.84;5016544;28;20053;-77
2023/06/12 09:45:12;;;;;;;5.88;5.28;;;;;;;25.60;33.15;98234.81;5002496;28;20026;-76
2023/06/12 09:47:46;;;;;;;7.45;5.90;;;;;;;25.23;33.33;98242.09;5025142;28;20048;-77
2023/06/12 09:50:13;;;;;;;9.35;5.95;;;;;;;25.54;33.50;98242.50;4994528;28;20069;-77
2023/06/12 09:52:43;;;;;;;7.28;5.60;;;;;;;25.62;33.37;98236.09;4984305;28;20031;-77
2023/06/12 09:55:11;;;;;;;8.27;5.55;;;;;;;24.98;34.54;98240.41;4996996;28;20054;-77
2023/06/12 09:57:37;;;;;;;6.60;5.63;;;;;;;25.25;32.85;98235.13;4994242;28;20121;-77
2023/06/12 10:00:08;;;;;;;10.73;5.88;;;;;;;26.01;32.16;98220.84;4991284;28;20581;-76
2023/06/12 10:02:40;;;;;;;5.90;5.30;;;;;;;25.68;32.42;98231.94;5019012;28;20041;-77
2023/06/12 10:05:07;;;;;;;6.65;4.93;;;;;;;25.71;30.92;98236.78;5000493;28;20042;-76
2023/06/12 10:07:38;;;;;;;8.55;5.30;;;;;;;26.06;33.32;98226.94;4985507;28;20023;-77
2023/06/12 10:10:07;;;;;;;8.73;5.75;;;;;;;25.68;32.37;98231.94;4987846;28;20459;-77
2023/06/12 10:12:33;;;;;;;8.32;5.88;;;;;;;25.33;33.30;98222.41;5004070;28;20034;-76
2023/06/12 10:14:59;;;;;;;7.30;5.35;;;;;;;26.10;33.15;98221.56;5000087;28;20191;-77
2023/06/12 10:17:25;;;;;;;7.00;5.47;;;;;;;26.64;31.62;98219.31;5004114;28;20034;-77
2023/06/12 10:19:51;;;;;;;7.47;5.30;;;;;;;26.47;32.19;98230.63;5007455;28;20037;-76
2023/06/12 10:22:16;;;;;;;9.20;5.72;;;;;;;26.11;32.87;98212.13;5019880;28;20104;-77
2023/06/12 10:24:42;;;;;;;8.30;5.53;;;;;;;26.03;32.52;98205.53;5017781;28;20046;-76
2023/06/12 10:27:08;;;;;;;7.75;5.38;;;;;;;26.80;31.60;98206.41;5001301;28;20034;-76
2023/06/12 10:29:36;;;;;;;6.25;5.63;;;;;;;26.27;32.00;98215.00;5020011;28;20144;-76
2023/06/12 10:32:03;;;;;;;6.43;5.30;;;;;;;26.66;31.73;98205.97;4987150;28;20022;-76
2023/06/12 10:34:29;;;;;;;7.82;6.00;;;;;;;26.96;30.99;98199.00;4999806;28;20041;-77
2023/06/12 10:36:54;;;;;;;6.68;5.95;;;;;;;26.57;31.07;98197.81;5004560;28;20101;-77
2023/06/12 10:39:24;;;;;;;9.52;5.40;;;;;;;26.94;30.69;98203.25;5007094;28;20559;-76
2023/06/12 10:41:56;;;;;;;7.10;5.57;;;;;;;27.13;30.47;98195.94;5021201;28;20021;-76
2023/06/12 10:44:41;;;;;;;8.65;5.78;;;;;;;27.05;29.78;98202.41;4980431;28;20049;-76
2023/06/12 10:47:17;;;;;;;6.53;5.63;;;;;;;26.20;30.36;98200.97;5000832;28;20041;-77
2023/06/12 10:49:56;;;;;;;5.70;5.10;;;;;;;27.01;30.25;98190.44;5007530;28;20136;-77
2023/06/12 10:52:22;;;;;;;7.18;5.97;;;;;;;27.11;30.50;98198.25;5008379;28;20041;-77
2023/06/12 10:55:23;;;;;;;6.20;5.45;;;;;;;26.73;30.76;98195.13;5002740;28;20072;-77
2023/06/12 10:57:55;;;;;;;7.13;5.40;;;;;;;27.12;30.38;98180.47;5002989;28;20607;-77
2023/06/12 11:00:27;;;;;;;5.90;5.00;;;;;;;27.39;31.26;98185.22;5018305;28;20037;-77
2023/06/12 11:03:01;;;;;;;7.53;5.28;;;;;;;26.08;31.49;98179.66;5013180;28;20037;-77
2023/06/12 11:05:28;;;;;;;8.52;5.35;;;;;;;27.38;29.66;98180.84;5022010;28;20038;-76
2023/06/12 11:08:01;;;;;;;7.82;5.13;;;;;;;26.92;30.17;98175.16;4990136;28;20069;-76
2023/06/12 11:10:27;;;;;;;7.07;5.28;;;;;;;26.46;30.09;98168.25;5014622;28;20445;-76
2023/06/12 11:12:53;;;;;;;6.97;4.95;;;;;;;27.61;29.53;98163.66;5020684;28;20057;-77
2023/06/12 11:15:20;;;;;;;6.35;5.32;;;;;;;27.29;29.12;98168.31;5009999;28;20129;-77
2023/06/12 11:17:46;;;;;;;7.18;5.45;;;;;;;26.79;30.04;98160.59;5009959;28;20021;-76
2023/06/12 11:20:13;;;;;;;6.90;5.43;;;;;;;26.51;30.52;98171.56;5003573;28;20056;-76
2023/06/12 11:22:38;;;;;;;6.68;5.00;;;;;;;27.72;29.11;98161.97;5003591;28;20022;-77
2023/06/12 11:25:05;;;;;;;9.23;5.20;;;;;;;27.37;29.12;98165.44;4983608;28;20116;-77
2023/06/12 11:27:30;;;;;;;9.85;5.28;;;;;;;27.60;29.01;98173.91;4999881;28;20075;-77
2023/06/12 11:29:56;;;;;;;6.30;4.88;;;;;;;28.36;27.51;98151.25;5015471;28;20120;-77
2023/06/12 11:32:22;;;;;;;5.65;5.00;;;;;;;27.40;28.29;98164.69;4983880;28;20134;-76